METAR
METAR MDPP 092200Z 12008KT 9999 SCT020 27/21 Q1016 NOSIG=
METAR MDST 092200Z 10010KT 9999 SCT022 27/20 Q1016=
METAR MDPC 092200Z 10013KT 9999 SCT025 26/21 Q1016=
METAR MDBH 092200Z 13010KT 9999 FEW020 29/21 Q1015 NOSIG=
METAR MDJB 092200Z 06011KT 9999 SCT022 30/20 Q1016=
METAR MDSD 092200Z 07010KT 9999 SCT020 28/21 Q1015 NOSIG=
METAR MDLR 092200Z 07010KT 9999 FEW020 27/23 Q1015=
METAR MDCY 092200Z 08008KT 9999 FEW018 27/24 Q1016=
METAR MDAB 092200Z 09006KT 9999 SCT022 29/25 Q1017=

OTROS VINCULOS DE INTERES
Carta de Altura
Vuelos de Bajo Nivel
Airmet
Sigmet
Metar
TAF
Tiempo Significativos
Imagen Satelital
De interes sobre Cambio Climatico
Boletin Vigilancia Climática
Temporada Ciclónica 2014
Políticas de Calidad
Glosario
campaña mundial para mejorar los servicios meteorológicos y climáticos
Datos Astronomicos
Boletin Hidrometeorológico
Lluvias Acumuladas
Mapa de Precipitación Diaria
Resumen Agrometeorológico
Agroclima Mensual
Incidencias del Clima
Desviación Precipitaciones
Perspectiva Agrometeorológica Decadal
Boletín Decadal del Indice de Humedad
Portada | Términos de uso | Política de privacidad | Declaración Legal
©2007 Oficina Nacional de Meteorología. Todos los Derechos Reservados. | Desarrollado por: Mixona Network